Airfield :







YOU CAN JOIN US ON...

 
LOGIN :

Register | Disclaimer

   EN    FR    IT 

 









Legend :    VFR   Marginal VFR   IFR   Intensive IFR   Very Intensive IFR
Visi :
Ceiling :
>= 8 km
>= 3000ft
5 to 8 km
1000 to 3000 ft
1500m to 5 km
500 to 1000 ft
800 to 1500m
200 to 500 ft
< 800m
< 200 ft
Symbols :   Thunderstorms  Fog  Heavy snow  Heavy precipitations  Wind > 20 kt







- Airport Elevation : 1161 ft


KBML - Berlin Regional

CURRENT METAR :
  • 171823Z AUTO 00000KT 10SM SCT028 BKN036 OVC050 26/20 A2989 RMK AO2 T02610200

EXPIRED METARs :
  • 171752Z AUTO 23004KT 10SM BKN026 OVC032 26/20 A2989 RMK AO2 SLP116 60033 T02610200 10267 20200 56005
  • 171724Z AUTO VRB04KT 10SM BKN024 BKN029 26/20 A2989 RMK AO2 T02560200
  • 171652Z AUTO VRB03KT 10SM SCT016 SCT030 BKN041 26/21 A2989 RMK AO2 RAE1558 SLP117 P0000 T02560206
  • 171559Z AUTO 00000KT 10SM FEW011 BKN024 OVC050 23/21 A2990 RMK AO2 RAE58 P0000 T02330206
  • 171552Z AUTO 00000KT 10SM -RA SCT026 BKN049 OVC110 23/21 A2990 RMK AO2 RAE1459B15 SLP121 P0001 T02330206

TAF N/A
KZBW FIR / North America



MET'MAP, your aeronautical weather chart ! - Copyright ORBIFLY December 2007 - Disclaimer

ORBIFLY MET'MAP TEAM :

Programming & Development : Alexandra Zaïnal
Concept & Development : Baudouin d'Aumeries
Co-Development & Prog : Marc-Olivier Méhu
Technical & hardware support : Manuel Goepfert

Contact : metmap@orbifly.com




SOURCES & CREDITS :

   NOAA